Time;durP1;ratioP1;P1;durP2;ratioP2;P2;SDS_P1;SDS_P2;PMS_P1;PMS_P2;Temp;Humidity;BMP_temperature;BMP_pressure;BME280_temperature;BME280_humidity;BME280_pressure;Samples;Min_cycle;Max_cycle;Signal;HPM_P1;HPM_P2
2023/12/14 00:00:32;;;;;;;12.95;7.38;;;;;;;18.60;40.43;100760.91;16103885;19;131639;-47
2023/12/14 00:05:53;;;;;;;9.43;6.35;;;;;;;18.55;40.70;100760.81;16114430;19;130499;-47
2023/12/14 00:11:16;;;;;;;10.05;7.32;;;;;;;18.53;40.87;100760.22;16119357;19;130764;-45
2023/12/14 00:16:38;;;;;;;11.13;7.15;;;;;;;18.50;40.41;100785.66;16116422;19;129826;-50
2023/12/14 00:22:00;;;;;;;9.55;7.30;;;;;;;18.46;40.73;100796.41;16118786;19;131303;-47
2023/12/14 00:27:22;;;;;;;12.63;8.73;;;;;;;18.44;40.47;100802.19;16115248;19;131451;-45
2023/12/14 00:32:44;;;;;;;12.65;9.32;;;;;;;18.38;40.36;100816.16;16112848;19;130517;-46
2023/12/14 00:38:06;;;;;;;14.27;8.73;;;;;;;18.34;40.18;100828.81;16114397;19;130492;-46
2023/12/14 00:43:28;;;;;;;13.18;8.73;;;;;;;18.29;40.52;100837.88;16114393;19;130224;-48
2023/12/14 00:48:49;;;;;;;11.38;8.57;;;;;;;18.26;40.21;100841.97;16112621;19;129426;-45
2023/12/14 00:54:11;;;;;;;11.05;8.57;;;;;;;18.25;40.28;100861.59;16113741;19;130598;-43
2023/12/14 00:59:33;;;;;;;10.82;8.18;;;;;;;18.22;40.27;100871.25;16113789;19;130620;-46
2023/12/14 01:04:55;;;;;;;9.85;8.02;;;;;;;18.19;40.27;100888.34;16113545;19;129173;-47
2023/12/14 01:10:17;;;;;;;11.10;7.95;;;;;;;18.15;40.09;100904.59;16112385;19;129690;-46
2023/12/14 01:15:39;;;;;;;10.30;8.05;;;;;;;18.11;40.13;100914.47;16112695;19;129538;-48
2023/12/14 01:21:01;;;;;;;11.80;7.95;;;;;;;18.11;40.01;100933.84;16110514;19;130631;-47
2023/12/14 01:26:23;;;;;;;10.02;7.22;;;;;;;18.09;39.73;100940.72;16101639;19;131236;-52
2023/12/14 01:31:45;;;;;;;8.80;6.85;;;;;;;18.06;40.07;100952.28;16103654;19;130890;-46
2023/12/14 01:37:07;;;;;;;9.52;6.65;;;;;;;18.04;39.73;100963.59;16104887;19;130708;-46
2023/12/14 01:42:29;;;;;;;9.55;6.40;;;;;;;18.02;39.82;100971.28;16106390;19;130971;-48
2023/12/14 01:47:51;;;;;;;7.25;5.75;;;;;;;18.00;39.89;100987.28;16110722;19;129662;-47
2023/12/14 01:53:13;;;;;;;7.70;5.70;;;;;;;17.99;39.58;100993.91;16113478;19;129961;-53
2023/12/14 01:58:35;;;;;;;7.07;5.63;;;;;;;17.96;39.49;101006.31;16112215;19;131342;-52
2023/12/14 02:03:57;;;;;;;7.07;5.38;;;;;;;17.94;39.51;101016.78;16111988;19;130371;-52
2023/12/14 02:09:19;;;;;;;6.85;5.15;;;;;;;17.91;39.38;101022.78;16111856;19;131732;-55
2023/12/14 02:14:41;;;;;;;5.95;4.68;;;;;;;17.90;39.74;101042.41;16114880;19;135397;-51
2023/12/14 02:20:04;;;;;;;6.60;5.10;;;;;;;17.88;39.43;101047.34;16112801;19;130167;-47
2023/12/14 02:25:26;;;;;;;8.18;4.35;;;;;;;17.86;39.23;101055.88;16107900;19;130890;-47
2023/12/14 02:30:48;;;;;;;5.45;4.72;;;;;;;17.84;39.68;101061.69;16107577;19;131007;-44
2023/12/14 02:36:10;;;;;;;4.75;4.22;;;;;;;17.81;39.49;101075.97;16106899;19;129624;-50
2023/12/14 02:41:32;;;;;;;6.15;4.40;;;;;;;17.80;39.40;101084.50;16103801;19;130136;-50
2023/12/14 02:46:54;;;;;;;5.32;4.28;;;;;;;17.77;39.47;101096.91;16106719;19;129662;-45
2023/12/14 02:52:16;;;;;;;4.85;3.70;;;;;;;17.75;38.96;101099.03;16109141;19;130161;-48
2023/12/14 02:57:38;;;;;;;5.60;4.07;;;;;;;17.73;38.92;101112.28;16106928;19;130361;-47
2023/12/14 03:03:00;;;;;;;5.93;3.58;;;;;;;17.73;38.97;101123.34;16100965;19;129733;-48
2023/12/14 03:08:22;;;;;;;8.10;3.83;;;;;;;17.70;39.19;101121.06;16109411;19;130271;-46
2023/12/14 03:13:44;;;;;;;4.55;2.95;;;;;;;17.69;38.96;101119.38;16104213;19;129590;-49
2023/12/14 03:19:06;;;;;;;3.80;2.63;;;;;;;17.68;39.09;101137.06;16106209;19;131283;-47
2023/12/14 03:24:28;;;;;;;4.63;2.75;;;;;;;17.67;39.01;101140.91;16105517;19;129441;-44
2023/12/14 03:29:50;;;;;;;5.03;3.20;;;;;;;17.65;38.79;101148.59;16108243;19;130533;-46
2023/12/14 03:35:12;;;;;;;3.70;2.72;;;;;;;17.64;39.02;101142.22;16106040;19;129404;-48
2023/12/14 03:40:34;;;;;;;4.13;2.78;;;;;;;17.61;38.92;101148.22;16116156;19;129441;-46
2023/12/14 03:45:56;;;;;;;5.38;2.85;;;;;;;17.60;38.46;101160.34;16114902;19;131782;-46
2023/12/14 03:51:20;;;;;;;3.17;2.42;;;;;;;17.59;38.61;101168.91;16114365;19;130805;-47
2023/12/14 03:56:42;;;;;;;5.55;2.45;;;;;;;17.57;38.70;101173.81;16116080;19;129806;-48
2023/12/14 04:02:04;;;;;;;3.60;2.50;;;;;;;17.57;38.83;101190.41;16114250;19;129717;-52
2023/12/14 04:07:26;;;;;;;3.55;1.98;;;;;;;17.56;38.86;101199.78;16116856;19;131694;-46
2023/12/14 04:12:48;;;;;;;3.03;2.08;;;;;;;17.56;38.43;101203.38;16117444;19;130001;-49
2023/12/14 04:18:10;;;;;;;2.58;2.00;;;;;;;17.56;38.87;101227.44;16109709;19;131287;-48
2023/12/14 04:23:33;;;;;;;2.75;1.48;;;;;;;17.54;38.66;101228.53;16108620;19;130927;-44
2023/12/14 04:28:55;;;;;;;2.38;1.58;;;;;;;17.54;38.63;101247.88;16110198;19;130246;-47
2023/12/14 04:34:18;;;;;;;2.33;1.55;;;;;;;17.52;38.71;101255.53;16111379;19;130870;-48
2023/12/14 04:39:41;;;;;;;2.45;1.80;;;;;;;17.51;38.45;101264.91;16107994;19;130138;-44
2023/12/14 04:45:03;;;;;;;2.60;1.80;;;;;;;17.50;38.34;101271.50;16112418;19;130059;-44
2023/12/14 04:50:25;;;;;;;3.72;1.92;;;;;;;17.48;38.44;101283.91;16117093;19;132110;-47
2023/12/14 04:55:47;;;;;;;2.20;1.98;;;;;;;17.47;38.70;101296.91;16112989;19;129885;-47
2023/12/14 05:01:09;;;;;;;2.30;2.10;;;;;;;17.46;38.42;101303.50;16117616;19;130289;-43
2023/12/14 05:06:33;;;;;;;2.17;1.98;;;;;;;17.44;38.33;101310.31;16117802;19;131936;-46
2023/12/14 05:11:55;;;;;;;2.67;2.10;;;;;;;17.42;38.42;101332.69;16116174;19;130632;-49
2023/12/14 05:17:17;;;;;;;3.17;2.55;;;;;;;17.40;38.62;101345.88;16113439;19;133784;-45
2023/12/14 05:22:39;;;;;;;3.40;2.50;;;;;;;17.39;38.49;101366.31;16115969;19;130826;-46
2023/12/14 05:28:01;;;;;;;3.50;2.30;;;;;;;17.37;38.32;101376.75;16115626;19;129932;-46
2023/12/14 05:33:23;;;;;;;2.42;1.98;;;;;;;17.37;38.10;101385.06;16115215;19;129730;-48
2023/12/14 05:38:45;;;;;;;2.80;1.95;;;;;;;17.36;38.21;101386.13;16111972;19;130837;-47
2023/12/14 05:44:07;;;;;;;2.50;1.67;;;;;;;17.35;38.16;101398.28;16115288;19;129927;-45
2023/12/14 05:49:29;;;;;;;2.15;1.70;;;;;;;17.33;38.33;101406.78;16108753;19;129987;-45
2023/12/14 05:54:51;;;;;;;2.95;1.88;;;;;;;17.34;38.17;101421.47;16106357;19;131045;-48
2023/12/14 06:00:13;;;;;;;3.13;1.92;;;;;;;17.33;37.99;101422.56;16107911;19;129515;-45
2023/12/14 06:05:35;;;;;;;2.45;2.00;;;;;;;17.31;38.39;101433.81;16108814;19;130526;-45
2023/12/14 06:10:57;;;;;;;3.53;1.85;;;;;;;17.32;38.22;101437.44;16109279;19;130269;-45
2023/12/14 06:16:19;;;;;;;2.40;1.88;;;;;;;17.32;37.91;101451.28;16103809;19;130052;-49
2023/12/14 06:21:41;;;;;;;2.40;1.92;;;;;;;17.29;37.90;101457.25;16101639;19;133443;-44
2023/12/14 06:27:03;;;;;;;2.13;1.33;;;;;;;17.34;38.37;101462.97;16103486;19;130049;-49
2023/12/14 06:32:25;;;;;;;2.58;1.70;;;;;;;17.62;38.15;101486.59;16104619;19;129285;-47
2023/12/14 06:37:48;;;;;;;1.50;1.25;;;;;;;18.09;37.48;101486.97;16104951;19;130840;-46
2023/12/14 06:43:10;;;;;;;1.50;1.17;;;;;;;18.63;36.63;101491.97;16101138;19;131191;-47
2023/12/14 06:48:32;;;;;;;10.32;1.23;;;;;;;19.08;36.15;101505.41;16111092;19;129803;-46
2023/12/14 06:53:54;;;;;;;1.92;1.25;;;;;;;19.40;35.68;101520.16;16107230;19;131391;-49
2023/12/14 06:59:16;;;;;;;1.80;1.30;;;;;;;19.58;35.72;101531.16;16105120;19;133467;-46
2023/12/14 07:04:38;;;;;;;1.83;1.20;;;;;;;19.65;35.75;101547.72;16106237;19;131369;-51
2023/12/14 07:10:01;;;;;;;1.55;1.17;;;;;;;19.59;35.69;101552.28;16109049;19;129975;-45
2023/12/14 07:15:23;;;;;;;1.30;1.08;;;;;;;19.48;35.64;101559.50;16116975;19;129759;-45
2023/12/14 07:20:45;;;;;;;1.63;1.25;;;;;;;19.36;36.09;101561.41;16124985;19;129231;-44
2023/12/14 07:26:07;;;;;;;2.03;1.20;;;;;;;19.21;36.24;101564.59;16122463;19;129861;-46
2023/12/14 07:31:30;;;;;;;2.30;1.27;;;;;;;19.08;35.94;101574.75;16122257;19;129419;-47
2023/12/14 07:36:51;;;;;;;4.43;1.38;;;;;;;18.95;36.33;101583.25;16123138;19;131298;-45
2023/12/14 07:42:19;;;;;;;3.70;1.58;;;;;;;18.81;36.66;101603.91;16114226;19;129807;-48
2023/12/14 07:47:42;;;;;;;4.07;1.67;;;;;;;18.67;36.48;101606.81;16116431;19;134516;-49
2023/12/14 07:53:04;;;;;;;3.83;1.40;;;;;;;18.57;36.87;101612.06;16121422;19;131228;-47
2023/12/14 07:58:26;;;;;;;6.07;1.35;;;;;;;18.48;37.01;101616.19;16121529;19;130327;-47
2023/12/14 08:03:48;;;;;;;3.40;1.73;;;;;;;18.42;36.66;101632.66;16117005;19;131475;-46
2023/12/14 08:09:10;;;;;;;3.75;1.60;;;;;;;18.35;37.05;101640.13;16114150;19;129911;-44
2023/12/14 08:14:34;;;;;;;4.43;1.75;;;;;;;18.34;36.72;101643.97;16121975;19;130619;-48
2023/12/14 08:19:55;;;;;;;3.67;1.52;;;;;;;18.29;37.20;101664.03;16119470;19;129316;-45
2023/12/14 08:25:17;;;;;;;3.47;1.50;;;;;;;18.22;37.18;101663.25;16120075;19;129832;-46
2023/12/14 08:30:39;;;;;;;2.88;1.58;;;;;;;18.17;37.04;101670.56;16119209;19;131649;-47
2023/12/14 08:36:02;;;;;;;3.65;1.52;;;;;;;18.15;36.95;101679.94;16118402;19;130401;-48
2023/12/14 08:41:24;;;;;;;2.83;1.65;;;;;;;18.47;36.58;101698.47;16115511;19;129705;-46
2023/12/14 08:46:46;;;;;;;3.03;1.30;;;;;;;18.49;36.60;101712.06;16118084;19;131372;-49
2023/12/14 08:52:11;;;;;;;3.42;1.30;;;;;;;18.35;36.96;101717.69;16119427;19;129499;-48
2023/12/14 08:57:33;;;;;;;1.83;1.25;;;;;;;18.28;37.28;101725.22;16116731;19;129814;-50
2023/12/14 09:02:55;;;;;;;3.22;1.48;;;;;;;18.22;37.02;101743.59;16117803;19;129528;-49
2023/12/14 09:08:17;;;;;;;1.98;1.20;;;;;;;18.18;37.35;101758.94;16115087;19;129366;-50
2023/12/14 09:13:39;;;;;;;2.95;1.35;;;;;;;18.17;37.45;101764.72;16116413;19;129849;-48
2023/12/14 09:19:01;;;;;;;3.28;1.60;;;;;;;18.14;37.53;101775.16;16115330;19;131382;-51
2023/12/14 09:24:23;;;;;;;2.47;1.42;;;;;;;18.11;37.39;101799.69;16115891;19;130621;-47
2023/12/14 09:29:45;;;;;;;1.52;1.23;;;;;;;18.06;37.52;101816.09;16116912;19;129449;-48
2023/12/14 09:35:07;;;;;;;3.08;1.58;;;;;;;17.99;37.46;101813.34;16109774;19;129245;-50
2023/12/14 09:40:30;;;;;;;2.28;1.50;;;;;;;17.93;37.53;101825.34;16113858;19;131360;-45
2023/12/14 09:45:54;;;;;;;3.58;1.70;;;;;;;17.89;37.64;101826.81;16109269;19;130995;-44
2023/12/14 09:51:17;;;;;;;5.20;1.70;;;;;;;17.85;37.50;101843.03;16107928;19;130282;-45
2023/12/14 09:56:46;;;;;;;3.50;1.80;;;;;;;17.86;37.66;101847.50;16111849;19;130423;-52
2023/12/14 10:02:12;;;;;;;3.03;1.58;;;;;;;17.85;37.89;101840.25;16107769;19;130241;-45
2023/12/14 10:07:42;;;;;;;3.28;1.73;;;;;;;17.85;37.47;101856.88;16114288;19;129537;-50
2023/12/14 10:13:04;;;;;;;4.35;1.80;;;;;;;17.81;37.38;101866.66;16111510;19;129425;-48
2023/12/14 10:18:26;;;;;;;3.90;1.80;;;;;;;17.80;37.28;101868.59;16112905;19;129686;-50
2023/12/14 10:23:49;;;;;;;3.15;1.58;;;;;;;17.78;37.70;101862.44;16113221;19;129478;-53
2023/12/14 10:29:11;;;;;;;3.50;1.88;;;;;;;17.78;37.53;101873.50;16113204;19;130398;-53
2023/12/14 10:34:35;;;;;;;5.22;1.70;;;;;;;17.76;37.37;101883.94;16112519;19;129722;-52
2023/12/14 10:39:58;;;;;;;2.08;1.27;;;;;;;17.74;37.49;101891.59;16110974;19;129558;-52
2023/12/14 10:45:24;;;;;;;2.88;1.85;;;;;;;17.73;37.53;101898.19;16112738;19;129527;-52
2023/12/14 10:50:49;;;;;;;3.80;1.75;;;;;;;17.71;37.41;101907.78;16111752;19;131512;-49
2023/12/14 10:56:11;;;;;;;2.72;1.58;;;;;;;17.69;37.19;101913.56;16107450;19;131471;-45
2023/12/14 11:01:38;;;;;;;3.00;1.70;;;;;;;17.67;37.16;101921.22;16107980;19;130182;-44
2023/12/14 11:07:00;;;;;;;2.60;1.60;;;;;;;17.66;37.35;101925.03;16109862;19;130072;-47
2023/12/14 11:12:23;;;;;;;3.55;1.90;;;;;;;17.65;37.35;101917.81;16109716;19;129560;-46
2023/12/14 11:18:10;;;;;;;3.58;1.55;;;;;;;17.65;37.32;101918.69;16110659;19;131075;-49
2023/12/14 11:23:36;;;;;;;3.03;1.38;;;;;;;17.64;37.15;101930.81;16109301;19;130986;-48
2023/12/14 11:28:59;;;;;;;3.33;1.67;;;;;;;17.63;37.45;101925.47;16111317;19;129709;-48
2023/12/14 11:34:24;;;;;;;2.78;1.48;;;;;;;17.63;37.35;101931.88;16107011;19;133847;-48
2023/12/14 11:39:49;;;;;;;3.67;1.92;;;;;;;17.59;37.10;101941.66;16107543;19;131065;-44
2023/12/14 11:45:11;;;;;;;8.10;2.00;;;;;;;17.64;37.61;101938.25;16106494;19;130171;-49
2023/12/14 11:50:34;;;;;;;5.00;1.40;;;;;;;17.70;38.21;101931.88;16099111;19;129510;-47
2023/12/14 11:55:56;;;;;;;3.92;1.42;;;;;;;17.75;38.08;101929.28;16099131;19;129837;-52
2023/12/14 12:01:20;;;;;;;2.85;1.35;;;;;;;17.85;38.25;101945.44;16109006;19;130778;-44
2023/12/14 12:06:43;;;;;;;5.80;1.42;;;;;;;17.84;38.37;101955.69;16119046;19;130650;-46
2023/12/14 12:12:07;;;;;;;4.63;1.55;;;;;;;17.80;37.86;101965.47;16115818;19;129724;-45
2023/12/14 12:17:29;;;;;;;4.40;1.45;;;;;;;17.74;38.38;101955.25;16118217;19;130960;-46
2023/12/14 12:22:51;;;;;;;3.13;1.25;;;;;;;17.71;38.62;101961.25;16118836;19;129609;-48
2023/12/14 12:28:16;;;;;;;4.77;1.20;;;;;;;17.67;38.76;101962.72;16118440;19;132137;-46
2023/12/14 12:33:38;;;;;;;6.22;1.50;;;;;;;17.63;38.66;101967.84;16121623;19;129485;-48
2023/12/14 12:39:00;;;;;;;3.47;1.15;;;;;;;17.59;39.33;101962.97;16118055;19;130853;-48
2023/12/14 12:44:22;;;;;;;3.45;1.17;;;;;;;17.58;39.15;101961.25;16116085;19;130910;-50
2023/12/14 12:49:44;;;;;;;4.30;1.10;;;;;;;17.56;39.63;101971.69;16115211;19;130536;-46
2023/12/14 12:55:07;;;;;;;2.03;1.20;;;;;;;17.53;39.45;101976.53;16117677;19;129426;-46
2023/12/14 13:00:29;;;;;;;5.32;1.83;;;;;;;17.51;39.98;101986.97;16113990;19;132188;-51
2023/12/14 13:05:51;;;;;;;5.53;1.38;;;;;;;17.51;39.91;101998.03;16115882;19;129687;-45
2023/12/14 13:11:14;;;;;;;2.90;1.10;;;;;;;17.49;40.07;101996.53;16112730;19;129534;-49
2023/12/14 13:16:36;;;;;;;4.95;1.23;;;;;;;17.49;40.08;101994.63;16119986;19;129613;-44
2023/12/14 13:21:59;;;;;;;2.10;1.23;;;;;;;17.48;40.27;101994.84;16119625;19;129960;-43
2023/12/14 13:27:23;;;;;;;1.38;1.02;;;;;;;17.46;40.45;101997.84;16118333;19;134752;-46
2023/12/14 13:32:45;;;;;;;2.47;1.00;;;;;;;17.46;40.34;102008.03;16121109;19;129916;-48
2023/12/14 13:38:08;;;;;;;2.47;1.25;;;;;;;17.44;40.51;102027.63;16115596;19;129320;-45
2023/12/14 13:43:30;;;;;;;1.42;0.93;;;;;;;17.44;40.42;102030.38;16114261;19;129867;-46
2023/12/14 13:48:52;;;;;;;3.72;1.00;;;;;;;17.43;40.80;102030.56;16111926;19;129472;-52
2023/12/14 13:54:15;;;;;;;3.00;1.10;;;;;;;17.42;41.17;102028.88;16110284;19;129241;-47
2023/12/14 13:59:37;;;;;;;3.70;1.35;;;;;;;17.41;41.27;102039.09;16112673;19;129709;-44
2023/12/14 14:04:59;;;;;;;2.30;1.00;;;;;;;17.39;41.12;102042.09;16110813;19;129837;-45
2023/12/14 14:10:21;;;;;;;1.92;0.88;;;;;;;17.39;41.83;102049.50;16112733;19;129574;-46
2023/12/14 14:15:43;;;;;;;2.60;1.02;;;;;;;17.38;41.56;102058.88;16112652;19;129743;-49
2023/12/14 14:21:08;;;;;;;2.30;1.35;;;;;;;17.37;41.89;102073.75;16111948;19;129639;-49
2023/12/14 14:26:30;;;;;;;2.87;1.20;;;;;;;17.36;41.87;102088.66;16108440;19;129653;-47
2023/12/14 14:31:52;;;;;;;3.42;0.93;;;;;;;17.35;41.91;102085.06;16104259;19;129702;-49
2023/12/14 14:37:14;;;;;;;2.25;0.93;;;;;;;17.35;42.12;102098.03;16106207;19;129622;-50
2023/12/14 14:42:36;;;;;;;1.95;0.80;;;;;;;17.34;41.79;102093.56;16106727;19;134918;-50
2023/12/14 14:47:59;;;;;;;3.08;1.20;;;;;;;17.33;42.28;102102.94;16106970;19;131032;-52
2023/12/14 14:53:21;;;;;;;3.42;1.05;;;;;;;17.34;42.66;102115.69;16097428;19;129679;-45
2023/12/14 14:58:45;;;;;;;5.38;1.50;;;;;;;17.37;43.26;102123.56;16099381;19;129741;-46
2023/12/14 15:04:08;;;;;;;4.83;1.10;;;;;;;17.40;43.33;102136.97;16106801;19;130333;-50
2023/12/14 15:09:30;;;;;;;2.80;1.00;;;;;;;17.39;42.93;102146.34;16104872;19;129330;-49
2023/12/14 15:14:52;;;;;;;2.72;1.05;;;;;;;17.38;42.72;102150.16;16106707;19;129595;-50
2023/12/14 15:20:14;;;;;;;7.32;1.55;;;;;;;17.36;42.85;102152.28;16105549;19;129607;-47
2023/12/14 15:25:36;;;;;;;2.28;1.00;;;;;;;17.36;42.88;102157.81;16104380;19;132335;-50
2023/12/14 15:30:58;;;;;;;5.82;1.10;;;;;;;17.34;42.62;102163.56;16108718;19;130762;-46
2023/12/14 15:36:20;;;;;;;2.92;1.10;;;;;;;17.34;42.48;102171.03;16118849;19;131092;-44
2023/12/14 15:41:43;;;;;;;2.53;1.02;;;;;;;17.34;42.81;102182.91;16122657;19;129851;-49
2023/12/14 15:47:05;;;;;;;2.00;1.00;;;;;;;17.33;42.59;102192.28;16122137;19;129640;-46
2023/12/14 15:52:28;;;;;;;3.58;1.35;;;;;;;17.38;43.81;102199.94;16113978;19;129536;-47
2023/12/14 15:57:51;;;;;;;2.97;0.90;;;;;;;17.67;43.54;102214.56;16115879;19;131339;-46
2023/12/14 16:03:12;;;;;;;2.83;0.90;;;;;;;18.18;43.29;102221.47;16113655;19;130213;-49
2023/12/14 16:08:34;;;;;;;3.25;0.82;;;;;;;18.67;42.86;102235.13;16114596;19;130541;-48
2023/12/14 16:13:56;;;;;;;7.47;1.30;;;;;;;19.05;42.05;102238.09;16127480;19;131610;-48
2023/12/14 16:19:20;;;;;;;6.25;1.00;;;;;;;19.27;41.77;102239.72;16124707;19;129957;-48
2023/12/14 16:24:43;;;;;;;4.97;0.90;;;;;;;19.38;41.91;102248.25;16129500;19;132328;-46
2023/12/14 16:30:06;;;;;;;2.97;1.08;;;;;;;19.38;41.51;102245.47;16124591;19;129490;-48
2023/12/14 16:35:29;;;;;;;5.93;1.23;;;;;;;19.33;41.83;102250.81;16131403;19;129334;-46
2023/12/14 16:40:52;;;;;;;5.57;1.23;;;;;;;19.23;41.90;102261.50;16140870;19;130778;-47
2023/12/14 16:46:20;;;;;;;3.25;1.20;;;;;;;19.11;42.09;102260.44;16141408;19;129429;-47
2023/12/14 16:51:42;;;;;;;3.15;1.20;;;;;;;18.97;42.10;102271.56;16140112;19;129432;-47
2023/12/14 16:57:04;;;;;;;4.47;1.25;;;;;;;18.83;42.42;102270.75;16141884;19;130528;-47
2023/12/14 17:02:25;;;;;;;2.15;1.10;;;;;;;18.76;42.94;102290.16;16138817;19;130351;-49
2023/12/14 17:07:47;;;;;;;4.13;1.33;;;;;;;18.69;42.78;102297.63;16139497;19;129508;-48
2023/12/14 17:13:09;;;;;;;4.72;1.10;;;;;;;18.67;42.96;102299.75;16140002;19;130211;-45
2023/12/14 17:18:31;;;;;;;5.18;1.20;;;;;;;18.69;43.08;102294.00;16140197;19;130864;-49
2023/12/14 17:23:55;;;;;;;3.97;1.42;;;;;;;18.76;43.32;102303.19;16136958;19;129295;-45
2023/12/14 17:29:16;;;;;;;2.50;1.10;;;;;;;19.00;42.69;102318.28;16138384;19;129960;-48
2023/12/14 17:34:39;;;;;;;2.15;1.00;;;;;;;19.35;41.93;102315.28;16121422;19;130066;-48
2023/12/14 17:40:01;;;;;;;5.88;1.30;;;;;;;19.69;42.04;102310.44;16119310;19;129944;-48
2023/12/14 17:45:23;;;;;;;2.90;1.20;;;;;;;20.03;41.40;102310.31;16119752;19;131157;-50
2023/12/14 17:50:45;;;;;;;3.35;1.15;;;;;;;20.27;41.07;102314.25;16119071;19;129941;-45
2023/12/14 17:56:07;;;;;;;3.38;1.20;;;;;;;20.50;40.46;102321.16;16109879;19;130601;-48
2023/12/14 18:01:29;;;;;;;2.63;1.08;;;;;;;20.64;40.58;102333.00;16110699;19;131258;-46
2023/12/14 18:06:51;;;;;;;4.65;1.10;;;;;;;20.80;40.35;102336.34;16109664;19;130258;-47
2023/12/14 18:12:13;;;;;;;3.08;1.20;;;;;;;20.94;39.95;102348.19;16115871;19;129701;-45
2023/12/14 18:17:35;;;;;;;2.78;0.98;;;;;;;21.03;39.97;102356.03;16114702;19;129456;-47
2023/12/14 18:22:58;;;;;;;1.95;0.90;;;;;;;20.99;39.82;102365.91;16115644;19;130536;-47
2023/12/14 18:28:20;;;;;;;2.70;1.10;;;;;;;20.85;39.98;102373.53;16112749;19;130404;-50
2023/12/14 18:33:42;;;;;;;2.80;1.02;;;;;;;20.70;40.02;102372.97;16109546;19;131767;-49
2023/12/14 18:39:04;;;;;;;3.67;1.20;;;;;;;20.54;40.35;102374.38;16030567;19;130238;-46
2023/12/14 18:44:26;;;;;;;3.35;1.20;;;;;;;20.38;40.52;102384.94;16108604;19;129503;-46
2023/12/14 18:49:48;;;;;;;2.40;0.90;;;;;;;20.25;40.81;102383.09;16107873;19;129906;-46
2023/12/14 18:55:11;;;;;;;2.92;1.10;;;;;;;20.12;41.03;102397.91;16106769;19;130497;-49
2023/12/14 19:00:33;;;;;;;3.50;1.17;;;;;;;20.01;41.20;102411.63;16107208;19;129445;-46
2023/12/14 19:05:55;;;;;;;4.80;1.23;;;;;;;19.91;40.94;102412.94;16108097;19;129882;-47
2023/12/14 19:11:19;;;;;;;2.75;1.00;;;;;;;19.81;41.17;102424.50;16117530;19;131017;-47
2023/12/14 19:16:41;;;;;;;1.85;1.13;;;;;;;19.72;41.53;102441.59;16120946;19;129562;-48
2023/12/14 19:22:03;;;;;;;2.63;1.20;;;;;;;19.63;41.53;102446.53;16115862;19;130515;-52
2023/12/14 19:27:25;;;;;;;2.95;1.02;;;;;;;19.53;41.37;102446.97;16120175;19;130995;-48
2023/12/14 19:32:47;;;;;;;2.22;1.05;;;;;;;19.55;41.40;102453.16;16122959;19;131265;-48
2023/12/14 19:38:10;;;;;;;1.92;1.08;;;;;;;19.81;40.95;102456.97;16119067;19;130838;-45
2023/12/14 19:43:32;;;;;;;3.53;1.02;;;;;;;20.27;40.73;102461.56;16117834;19;132386;-45
2023/12/14 19:48:57;;;;;;;3.60;0.95;;;;;;;20.68;40.22;102466.88;16118516;19;129728;-49
2023/12/14 19:54:19;;;;;;;1.98;1.00;;;;;;;20.96;39.66;102474.03;16119477;19;129972;-48
2023/12/14 19:59:41;;;;;;;3.05;1.30;;;;;;;21.06;39.39;102463.25;16120189;19;130721;-47
2023/12/14 20:05:05;;;;;;;2.53;1.10;;;;;;;21.01;39.65;102477.84;16120519;19;130692;-47
2023/12/14 20:10:28;;;;;;;2.05;1.17;;;;;;;20.89;39.60;102476.84;16123583;19;129680;-47
2023/12/14 20:15:50;;;;;;;2.00;1.20;;;;;;;20.74;39.96;102497.44;16122634;19;130790;-46
2023/12/14 20:21:13;;;;;;;2.38;1.02;;;;;;;20.56;39.88;102500.13;16117423;19;129693;-48
2023/12/14 20:26:34;;;;;;;1.35;0.82;;;;;;;20.42;40.27;102496.56;16118065;19;131732;-48
2023/12/14 20:31:56;;;;;;;4.75;1.30;;;;;;;20.37;40.54;102507.47;16118677;19;135066;-48
2023/12/14 20:37:19;;;;;;;3.75;1.45;;;;;;;20.33;40.43;102514.53;16115454;19;131123;-43
2023/12/14 20:42:41;;;;;;;2.33;1.10;;;;;;;20.53;40.45;102532.00;16119804;19;131804;-50
2023/12/14 20:48:03;;;;;;;8.35;1.58;;;;;;;20.90;40.27;102523.06;16115639;19;130815;-49
2023/12/14 20:53:25;;;;;;;4.70;1.08;;;;;;;21.32;39.42;102529.00;16119008;19;129491;-48
2023/12/14 20:58:47;;;;;;;2.58;1.17;;;;;;;21.69;39.05;102536.66;16114135;19;129578;-46
2023/12/14 21:04:10;;;;;;;6.70;1.15;;;;;;;21.97;38.43;102538.09;16115118;19;129955;-46
2023/12/14 21:09:32;;;;;;;2.92;1.27;;;;;;;22.11;38.49;102541.59;16115533;19;131090;-45
2023/12/14 21:14:57;;;;;;;3.80;1.23;;;;;;;22.08;38.61;102536.50;16117830;19;131007;-50
2023/12/14 21:20:20;;;;;;;5.25;1.65;;;;;;;21.93;38.39;102539.63;16113480;19;130131;-45
2023/12/14 21:26:01;;;;;;;5.10;1.33;;;;;;;21.70;38.28;102555.06;16114140;19;129270;-46
2023/12/14 21:31:23;;;;;;;5.03;1.30;;;;;;;21.47;38.49;102559.28;16109317;19;129090;-45
2023/12/14 21:36:45;;;;;;;4.22;1.80;;;;;;;21.28;38.69;102561.16;16114034;19;130003;-47
2023/12/14 21:42:07;;;;;;;3.78;1.52;;;;;;;21.06;39.09;102580.97;16119478;19;130561;-48
2023/12/14 21:47:29;;;;;;;3.03;1.23;;;;;;;20.85;39.07;102587.72;16113684;19;129446;-48
2023/12/14 21:52:51;;;;;;;3.83;1.58;;;;;;;20.67;39.26;102587.56;16113995;19;130409;-49
2023/12/14 21:58:13;;;;;;;3.78;1.38;;;;;;;20.50;39.71;102582.47;16112556;19;131190;-51
2023/12/14 22:03:35;;;;;;;4.53;1.65;;;;;;;20.36;39.66;102587.25;16115131;19;131408;-50
2023/12/14 22:08:57;;;;;;;5.38;1.30;;;;;;;20.22;39.79;102580.00;16110468;19;130594;-45
2023/12/14 22:14:19;;;;;;;4.32;1.42;;;;;;;20.10;39.90;102583.44;16111179;19;129755;-47
2023/12/14 22:19:41;;;;;;;2.38;1.30;;;;;;;19.97;40.32;102591.75;16107776;19;133569;-49
2023/12/14 22:25:04;;;;;;;4.65;1.30;;;;;;;19.86;40.23;102587.69;16108556;19;130212;-46
2023/12/14 22:30:26;;;;;;;1.80;1.20;;;;;;;19.80;40.58;102605.22;16106980;19;130459;-47
2023/12/14 22:35:48;;;;;;;3.47;1.30;;;;;;;19.71;40.71;102610.13;16103959;19;132009;-47
2023/12/14 22:41:14;;;;;;;5.18;1.40;;;;;;;19.63;40.36;102615.91;16109171;19;130931;-47
2023/12/14 22:46:40;;;;;;;3.38;1.40;;;;;;;19.54;40.87;102623.56;16108842;19;134280;-46
2023/12/14 22:52:01;;;;;;;;;;;;;;;19.46;40.97;102629.28;16107792;19;130555;-47
2023/12/14 22:57:25;;;;;;;4.07;1.10;;;;;;;19.39;40.92;102643.16;16112806;19;129625;-48
2023/12/14 23:02:47;;;;;;;2.50;1.30;;;;;;;19.33;40.66;102644.00;16108466;19;129954;-47
2023/12/14 23:08:09;;;;;;;1.55;1.00;;;;;;;19.27;40.81;102645.72;16109968;19;131059;-49
2023/12/14 23:13:31;;;;;;;2.60;1.13;;;;;;;19.18;40.78;102658.88;16110049;19;130002;-48
2023/12/14 23:18:53;;;;;;;3.80;1.13;;;;;;;19.13;41.25;102655.00;16107925;19;129571;-52
2023/12/14 23:24:15;;;;;;;2.67;1.10;;;;;;;19.07;41.27;102656.69;16106142;19;131032;-50
2023/12/14 23:29:38;;;;;;;2.13;1.30;;;;;;;19.03;41.13;102656.25;16107104;19;130039;-48
2023/12/14 23:35:00;;;;;;;2.33;1.30;;;;;;;18.99;41.04;102668.81;16106844;19;131255;-48
2023/12/14 23:40:22;;;;;;;3.15;1.35;;;;;;;18.94;41.05;102676.94;16104423;19;129943;-45
2023/12/14 23:45:46;;;;;;;2.53;1.10;;;;;;;18.89;41.30;102669.19;16107446;19;129486;-48
2023/12/14 23:51:08;;;;;;;3.70;1.45;;;;;;;18.85;41.51;102680.91;16100179;19;129393;-48
2023/12/14 23:56:30;;;;;;;3.38;1.30;;;;;;;18.80;41.38;102673.22;16113000;19;129384;-44
